createdAt,value
2018-02-18T00:00:55.963Z,1012.4
2018-02-18T00:01:57.349Z,1012.5
2018-02-18T00:02:58.736Z,1012.5
2018-02-18T00:04:00.119Z,1012.5
2018-02-18T00:05:01.502Z,1012.6
2018-02-18T00:06:02.888Z,1012.5
2018-02-18T00:07:04.271Z,1012.6
2018-02-18T00:08:05.656Z,1012.5
2018-02-18T00:09:07.042Z,1012.6
2018-02-18T00:10:08.422Z,1012.6
2018-02-18T00:11:09.806Z,1012.6
2018-02-18T00:12:11.182Z,1012.6
2018-02-18T00:13:12.563Z,1012.6
2018-02-18T00:14:13.947Z,1012.6
2018-02-18T00:15:15.330Z,1012.6
2018-02-18T00:16:16.737Z,1012.6
2018-02-18T00:17:18.117Z,1012.6
2018-02-18T00:18:19.496Z,1012.7
2018-02-18T00:19:20.880Z,1012.7
2018-02-18T00:20:22.266Z,1012.6
2018-02-18T00:21:23.651Z,1012.7
2018-02-18T00:22:25.031Z,1012.7
2018-02-18T00:23:26.423Z,1012.6
2018-02-18T00:24:27.804Z,1012.6
2018-02-18T00:25:29.185Z,1012.6
2018-02-18T00:26:30.572Z,1012.6
2018-02-18T00:27:31.950Z,1012.7
2018-02-18T00:28:33.352Z,1012.6
2018-02-18T00:29:34.762Z,1012.6
2018-02-18T00:30:36.156Z,1012.6
2018-02-18T00:31:37.536Z,1012.6
2018-02-18T00:32:38.915Z,1012.7
2018-02-18T00:33:40.341Z,1012.7
2018-02-18T00:34:41.680Z,1012.6
2018-02-18T00:35:43.064Z,1012.6
2018-02-18T00:36:44.446Z,1012.7
2018-02-18T00:37:45.830Z,1012.7
2018-02-18T00:38:47.212Z,1012.6
2018-02-18T00:39:48.592Z,1012.7
2018-02-18T00:40:49.976Z,1012.6
2018-02-18T00:41:51.371Z,1012.7
2018-02-18T00:42:52.756Z,1012.7
2018-02-18T00:43:54.139Z,1012.7
2018-02-18T00:44:55.548Z,1012.6
2018-02-18T00:45:56.913Z,1012.6
2018-02-18T00:46:58.292Z,1012.6
2018-02-18T00:47:59.676Z,1012.7
2018-02-18T00:49:01.074Z,1012.7
2018-02-18T00:50:02.459Z,1012.7
2018-02-18T00:51:03.836Z,1012.7
2018-02-18T00:52:05.219Z,1012.8
2018-02-18T00:53:06.606Z,1012.7
2018-02-18T00:54:07.985Z,1012.8
2018-02-18T00:55:09.369Z,1012.7
2018-02-18T00:56:10.746Z,1012.7
2018-02-18T00:57:12.126Z,1012.7
2018-02-18T00:58:13.520Z,1012.7
2018-02-18T00:59:14.905Z,1012.8
2018-02-18T01:00:16.287Z,1012.8
2018-02-18T01:01:17.666Z,1012.8
2018-02-18T01:02:19.050Z,1012.8
2018-02-18T01:03:20.434Z,1012.8
2018-02-18T01:04:21.811Z,1012.8
2018-02-18T01:05:23.193Z,1012.8
2018-02-18T01:06:24.576Z,1012.8
2018-02-18T01:07:25.961Z,1012.8
2018-02-18T01:08:27.341Z,1012.8
2018-02-18T01:09:28.724Z,1012.8
2018-02-18T01:10:30.110Z,1012.8
2018-02-18T01:11:31.497Z,1012.7
2018-02-18T01:12:32.876Z,1012.8
2018-02-18T01:13:34.260Z,1012.7
2018-02-18T01:14:35.642Z,1012.7
2018-02-18T01:15:37.026Z,1012.8
2018-02-18T01:16:38.410Z,1012.7
2018-02-18T01:17:39.791Z,1012.7
2018-02-18T01:18:41.207Z,1012.7
2018-02-18T01:19:42.613Z,1012.7
2018-02-18T01:20:43.999Z,1012.7
2018-02-18T01:21:45.378Z,1012.8
2018-02-18T01:22:46.753Z,1012.8
2018-02-18T01:23:48.141Z,1012.8
2018-02-18T01:24:49.522Z,1012.8
2018-02-18T01:25:50.903Z,1012.8
2018-02-18T01:26:52.284Z,1012.7
2018-02-18T01:27:53.669Z,1012.7
2018-02-18T01:28:55.046Z,1012.7
2018-02-18T01:29:56.429Z,1012.8
2018-02-18T01:30:57.809Z,1012.8
2018-02-18T01:31:59.190Z,1012.8
2018-02-18T01:33:00.574Z,1012.8
2018-02-18T01:34:01.990Z,1012.9
2018-02-18T01:35:03.373Z,1012.9
2018-02-18T01:36:04.750Z,1012.9
2018-02-18T01:37:06.146Z,1012.9
2018-02-18T01:38:07.514Z,1012.9
2018-02-18T01:39:08.897Z,1012.9
2018-02-18T01:40:10.280Z,1012.9
2018-02-18T01:41:11.690Z,1012.9
2018-02-18T01:42:13.073Z,1012.9
2018-02-18T01:43:14.452Z,1012.9
2018-02-18T01:44:15.834Z,1012.9
2018-02-18T01:45:17.214Z,1012.9
2018-02-18T01:46:18.594Z,1012.9
2018-02-18T01:47:19.978Z,1012.9
2018-02-18T01:48:21.370Z,1012.9
2018-02-18T01:49:22.752Z,1012.9
2018-02-18T01:50:24.134Z,1012.9
2018-02-18T01:51:25.517Z,1012.9
2018-02-18T01:52:26.898Z,1012.9
2018-02-18T01:53:28.280Z,1012.9
2018-02-18T01:54:29.668Z,1012.9
2018-02-18T01:55:31.044Z,1012.9
2018-02-18T01:56:32.423Z,1012.9
2018-02-18T01:57:33.804Z,1012.8
2018-02-18T01:58:35.190Z,1012.8
2018-02-18T01:59:36.584Z,1012.8
2018-02-18T02:00:37.962Z,1012.8
2018-02-18T02:01:39.342Z,1012.8
2018-02-18T02:02:40.729Z,1012.8
2018-02-18T02:03:42.114Z,1012.8
2018-02-18T02:04:43.492Z,1012.8
2018-02-18T02:05:44.870Z,1012.8
2018-02-18T02:06:46.255Z,1012.8
2018-02-18T02:07:47.637Z,1012.8
2018-02-18T02:08:49.029Z,1012.8
2018-02-18T02:09:50.448Z,1012.8
2018-02-18T02:10:51.832Z,1012.8
2018-02-18T02:11:53.209Z,1012.8
2018-02-18T02:12:54.591Z,1012.8
2018-02-18T02:13:55.975Z,1012.8
2018-02-18T02:14:57.357Z,1012.8
2018-02-18T02:15:58.740Z,1012.9
2018-02-18T02:17:00.125Z,1012.9
2018-02-18T02:18:01.515Z,1012.8
2018-02-18T02:19:02.916Z,1012.8
2018-02-18T02:20:04.292Z,1012.8
2018-02-18T02:21:05.672Z,1012.8
2018-02-18T02:22:07.060Z,1012.7
2018-02-18T02:23:08.445Z,1012.8
2018-02-18T02:24:09.825Z,1012.8
2018-02-18T02:25:11.223Z,1012.7
2018-02-18T02:26:12.602Z,1012.7
2018-02-18T02:27:13.999Z,1012.8
2018-02-18T02:28:15.381Z,1012.7
2018-02-18T02:29:16.794Z,1012.8
2018-02-18T02:30:18.176Z,1012.8
2018-02-18T02:31:19.563Z,1012.8
2018-02-18T02:32:20.947Z,1012.8
2018-02-18T02:33:22.330Z,1012.8
2018-02-18T02:34:23.716Z,1012.8
2018-02-18T02:35:25.094Z,1012.8
2018-02-18T02:36:26.476Z,1012.8
2018-02-18T02:37:27.862Z,1012.8
2018-02-18T02:38:29.243Z,1012.8
2018-02-18T02:39:30.630Z,1012.8
2018-02-18T02:40:32.013Z,1012.9
2018-02-18T02:41:33.389Z,1012.9
2018-02-18T02:42:34.772Z,1012.9
2018-02-18T02:43:36.154Z,1012.9
2018-02-18T02:44:37.535Z,1012.9
2018-02-18T02:45:38.919Z,1012.8
2018-02-18T02:46:40.305Z,1012.9
2018-02-18T02:47:41.688Z,1012.9
2018-02-18T02:48:43.068Z,1012.9
2018-02-18T02:49:44.452Z,1012.8
2018-02-18T02:50:45.832Z,1012.8
2018-02-18T02:51:47.219Z,1012.8
2018-02-18T02:52:48.597Z,1012.8
2018-02-18T02:53:49.980Z,1012.7
2018-02-18T02:54:51.374Z,1012.8
2018-02-18T02:55:52.754Z,1012.8
2018-02-18T02:56:54.152Z,1012.8
2018-02-18T02:57:55.520Z,1012.8
2018-02-18T02:58:56.965Z,1012.8
2018-02-18T02:59:58.365Z,1012.7
2018-02-18T03:00:59.746Z,1012.8
2018-02-18T03:02:01.130Z,1012.7
2018-02-18T03:03:02.508Z,1012.7
2018-02-18T03:04:03.890Z,1012.7
2018-02-18T03:05:05.269Z,1012.7
2018-02-18T03:06:06.660Z,1012.7
2018-02-18T03:07:08.044Z,1012.7
2018-02-18T03:08:09.429Z,1012.6
2018-02-18T03:09:10.804Z,1012.7
2018-02-18T03:10:12.194Z,1012.6
2018-02-18T03:11:13.571Z,1012.6
2018-02-18T03:12:14.954Z,1012.6
2018-02-18T03:13:16.335Z,1012.6
2018-02-18T03:14:17.716Z,1012.6
2018-02-18T03:15:19.098Z,1012.6
2018-02-18T03:16:20.490Z,1012.6
2018-02-18T03:17:21.870Z,1012.6
2018-02-18T03:18:23.251Z,1012.6
2018-02-18T03:19:24.636Z,1012.6
2018-02-18T03:20:26.012Z,1012.6
2018-02-18T03:21:27.396Z,1012.5
2018-02-18T03:22:28.782Z,1012.6
2018-02-18T03:23:30.163Z,1012.6
2018-02-18T03:24:31.549Z,1012.6
2018-02-18T03:25:32.948Z,1012.6
2018-02-18T03:26:34.332Z,1012.6
2018-02-18T03:27:35.713Z,1012.5
2018-02-18T03:28:37.108Z,1012.5
2018-02-18T03:29:38.494Z,1012.6
2018-02-18T03:30:39.874Z,1012.6
2018-02-18T03:31:41.263Z,1012.5
2018-02-18T03:32:42.642Z,1012.5
2018-02-18T03:33:44.026Z,1012.6
2018-02-18T03:34:45.409Z,1012.6
2018-02-18T03:35:46.789Z,1012.6
2018-02-18T03:36:48.173Z,1012.6
2018-02-18T03:37:49.553Z,1012.5
2018-02-18T03:38:50.936Z,1012.6
2018-02-18T03:39:52.316Z,1012.6
2018-02-18T03:40:53.696Z,1012.5
2018-02-18T03:41:55.077Z,1012.6
2018-02-18T03:42:56.472Z,1012.6
2018-02-18T03:43:57.855Z,1012.6
2018-02-18T03:44:59.235Z,1012.6
2018-02-18T03:46:00.619Z,1012.5
2018-02-18T03:47:02.003Z,1012.5
2018-02-18T03:48:03.397Z,1012.5
2018-02-18T03:49:04.796Z,1012.5
2018-02-18T03:50:06.195Z,1012.5
2018-02-18T03:51:07.585Z,1012.6
2018-02-18T03:52:08.966Z,1012.6
2018-02-18T03:53:10.347Z,1012.6
2018-02-18T03:54:11.733Z,1012.6
2018-02-18T03:55:13.114Z,1012.6
2018-02-18T03:56:14.500Z,1012.6
2018-02-18T03:57:15.879Z,1012.6
2018-02-18T03:58:17.269Z,1012.6
2018-02-18T03:59:18.647Z,1012.6
2018-02-18T04:00:20.027Z,1012.6
2018-02-18T04:01:21.427Z,1012.6
2018-02-18T04:02:22.810Z,1012.6
2018-02-18T04:03:24.195Z,1012.6
2018-02-18T04:04:25.573Z,1012.7
2018-02-18T04:05:26.956Z,1012.6
2018-02-18T04:06:28.341Z,1012.6
2018-02-18T04:07:29.720Z,1012.7
2018-02-18T04:08:31.100Z,1012.7
2018-02-18T04:09:32.478Z,1012.7
2018-02-18T04:10:33.860Z,1012.7
2018-02-18T04:11:35.244Z,1012.6
2018-02-18T04:12:36.652Z,1012.7
2018-02-18T04:13:38.034Z,1012.7
2018-02-18T04:14:39.413Z,1012.7
2018-02-18T04:15:40.795Z,1012.7
2018-02-18T04:16:42.177Z,1012.7
2018-02-18T04:17:43.560Z,1012.7
2018-02-18T04:18:44.942Z,1012.7
2018-02-18T04:19:46.334Z,1012.7
2018-02-18T04:20:47.711Z,1012.7
2018-02-18T04:21:49.093Z,1012.7
2018-02-18T04:22:50.477Z,1012.7
2018-02-18T04:23:51.877Z,1012.8
2018-02-18T04:24:53.259Z,1012.8
2018-02-18T04:25:54.637Z,1012.8
2018-02-18T04:26:56.022Z,1012.8
2018-02-18T04:27:57.401Z,1012.8
2018-02-18T04:28:58.785Z,1012.8
2018-02-18T04:30:00.167Z,1012.8
2018-02-18T04:31:01.547Z,1012.8
2018-02-18T04:32:02.935Z,1012.9
2018-02-18T04:33:04.312Z,1012.9
2018-02-18T04:34:05.693Z,1012.9
2018-02-18T04:35:07.071Z,1012.9
2018-02-18T04:36:08.454Z,1012.9
2018-02-18T04:37:09.836Z,1012.9
2018-02-18T04:38:11.218Z,1012.9
2018-02-18T04:39:12.601Z,1012.9
2018-02-18T04:40:14.064Z,1012.9
2018-02-18T04:41:15.451Z,1012.9
2018-02-18T04:42:16.837Z,1012.9
2018-02-18T04:43:18.215Z,1012.9
2018-02-18T04:44:19.597Z,1012.9
2018-02-18T04:45:20.979Z,1012.9
2018-02-18T04:46:22.364Z,1012.8
2018-02-18T04:47:23.747Z,1012.8
2018-02-18T04:48:25.129Z,1012.8
2018-02-18T04:49:26.515Z,1012.8
2018-02-18T04:50:27.895Z,1012.8
2018-02-18T04:51:29.275Z,1012.8
2018-02-18T04:52:30.658Z,1012.9
2018-02-18T04:53:32.041Z,1012.8
2018-02-18T04:54:33.435Z,1012.8
2018-02-18T04:55:34.806Z,1012.8
2018-02-18T04:56:36.191Z,1012.8
2018-02-18T04:57:37.566Z,1012.8
2018-02-18T04:58:38.951Z,1012.8
2018-02-18T04:59:40.330Z,1012.8
2018-02-18T05:00:41.725Z,1012.8
2018-02-18T05:01:43.110Z,1012.8
2018-02-18T05:02:44.487Z,1012.9
2018-02-18T05:03:45.868Z,1012.7
2018-02-18T05:04:47.263Z,1012.8
2018-02-18T05:05:48.646Z,1012.9
2018-02-18T05:06:50.027Z,1012.8
2018-02-18T05:07:51.415Z,1012.8
2018-02-18T05:08:52.797Z,1012.8
2018-02-18T05:09:54.179Z,1012.8
2018-02-18T05:10:55.560Z,1012.8
2018-02-18T05:11:56.949Z,1012.9
2018-02-18T05:12:58.330Z,1012.9
2018-02-18T05:13:59.712Z,1012.9
2018-02-18T05:15:01.095Z,1012.9
2018-02-18T05:16:02.476Z,1012.9
2018-02-18T05:17:03.862Z,1012.9
2018-02-18T05:18:05.245Z,1012.9
2018-02-18T05:19:06.626Z,1012.9
2018-02-18T05:20:08.007Z,1012.9
2018-02-18T05:21:09.390Z,1013.0
2018-02-18T05:22:10.770Z,1012.9
2018-02-18T05:23:12.158Z,1012.9
2018-02-18T05:24:13.549Z,1012.9
2018-02-18T05:25:14.924Z,1012.9
2018-02-18T05:26:16.301Z,1012.9
2018-02-18T05:27:17.686Z,1012.9
2018-02-18T05:28:19.070Z,1013.0
2018-02-18T05:29:20.453Z,1012.9
2018-02-18T05:30:21.932Z,1012.9
2018-02-18T05:31:23.339Z,1013.0
2018-02-18T05:32:24.716Z,1012.9
2018-02-18T05:33:26.095Z,1012.9
2018-02-18T05:34:27.479Z,1013.0
2018-02-18T05:35:28.859Z,1012.9
2018-02-18T05:36:30.241Z,1012.9
2018-02-18T05:37:31.629Z,1012.9
2018-02-18T05:38:33.014Z,1012.9
2018-02-18T05:39:34.393Z,1012.9
2018-02-18T05:40:35.773Z,1012.9
2018-02-18T05:41:37.160Z,1012.9
2018-02-18T05:42:38.543Z,1012.9
2018-02-18T05:43:39.926Z,1012.9
2018-02-18T05:44:41.311Z,1012.9
2018-02-18T05:45:42.694Z,1012.9
2018-02-18T05:46:44.073Z,1012.9
2018-02-18T05:47:45.458Z,1012.9
2018-02-18T05:48:46.840Z,1012.9
2018-02-18T05:49:48.221Z,1012.9
2018-02-18T05:50:49.604Z,1013.0
2018-02-18T05:51:50.985Z,1013.0
2018-02-18T05:52:52.370Z,1013.0
2018-02-18T05:53:53.751Z,1013.0
2018-02-18T05:54:55.124Z,1013.0
2018-02-18T05:55:56.520Z,1013.0
2018-02-18T05:56:57.904Z,1013.1
2018-02-18T05:57:59.283Z,1013.0
2018-02-18T05:59:00.667Z,1013.0
2018-02-18T06:00:02.064Z,1013.0
2018-02-18T06:01:03.448Z,1013.0
2018-02-18T06:02:04.829Z,1013.0
2018-02-18T06:03:06.214Z,1013.0
2018-02-18T06:04:07.589Z,1013.0
2018-02-18T06:05:08.971Z,1013.0
2018-02-18T06:06:10.354Z,1012.9
2018-02-18T06:07:11.741Z,1012.9
2018-02-18T06:08:13.120Z,1013.0
2018-02-18T06:09:14.498Z,1012.9
2018-02-18T06:10:15.878Z,1012.9
2018-02-18T06:11:17.260Z,1012.9
2018-02-18T06:12:18.645Z,1012.9
2018-02-18T06:13:20.027Z,1012.9
2018-02-18T06:14:21.414Z,1012.9
2018-02-18T06:15:22.791Z,1012.9
2018-02-18T06:16:24.171Z,1012.9
2018-02-18T06:17:25.551Z,1012.9
2018-02-18T06:18:26.934Z,1012.9
2018-02-18T06:19:28.319Z,1012.9
2018-02-18T06:20:29.698Z,1012.9
2018-02-18T06:21:31.120Z,1012.8
2018-02-18T06:22:32.504Z,1012.8
2018-02-18T06:23:33.887Z,1012.9
2018-02-18T06:24:35.265Z,1012.9
2018-02-18T06:25:36.648Z,1012.9
2018-02-18T06:26:38.033Z,1012.9
2018-02-18T06:27:39.412Z,1012.8
2018-02-18T06:28:40.798Z,1012.8
2018-02-18T06:29:42.182Z,1012.9
2018-02-18T06:30:43.560Z,1012.8
2018-02-18T06:31:44.946Z,1012.8
2018-02-18T06:32:46.328Z,1012.8
2018-02-18T06:33:47.711Z,1012.8
2018-02-18T06:34:49.097Z,1012.8
2018-02-18T06:35:50.480Z,1012.8
2018-02-18T06:36:51.874Z,1012.8
2018-02-18T06:37:53.254Z,1012.9
2018-02-18T06:38:54.635Z,1012.8
2018-02-18T06:39:56.017Z,1012.8
2018-02-18T06:40:57.401Z,1012.8
2018-02-18T06:41:58.786Z,1012.8
2018-02-18T06:43:00.167Z,1012.7
2018-02-18T06:44:01.568Z,1012.8
2018-02-18T06:45:02.950Z,1012.8
2018-02-18T06:46:04.333Z,1012.8
2018-02-18T06:47:05.733Z,1012.9
2018-02-18T06:48:07.111Z,1012.9
2018-02-18T06:49:08.504Z,1012.9
2018-02-18T06:50:09.877Z,1013.0
2018-02-18T06:51:11.259Z,1013.0
2018-02-18T06:52:12.640Z,1013.0
2018-02-18T06:53:14.026Z,1013.0
2018-02-18T06:54:15.407Z,1013.0
2018-02-18T06:55:16.792Z,1013.0
2018-02-18T06:56:18.174Z,1013.0
2018-02-18T06:57:19.560Z,1013.0
2018-02-18T06:58:20.947Z,1013.0
2018-02-18T06:59:22.334Z,1013.1
2018-02-18T07:00:23.718Z,1013.1
2018-02-18T07:01:25.104Z,1013.1
2018-02-18T07:02:26.493Z,1013.1
2018-02-18T07:03:27.881Z,1013.1
2018-02-18T07:04:29.271Z,1013.1
2018-02-18T07:05:30.653Z,1013.1
2018-02-18T07:06:32.037Z,1013.1
2018-02-18T07:07:33.422Z,1013.1
2018-02-18T07:08:34.806Z,1013.1
2018-02-18T07:09:36.198Z,1013.1
2018-02-18T07:10:37.579Z,1013.1
2018-02-18T07:11:39.020Z,1013.1
2018-02-18T07:12:40.421Z,1013.1
2018-02-18T07:13:41.805Z,1013.1
2018-02-18T07:14:43.188Z,1013.1
2018-02-18T07:15:44.572Z,1013.0
2018-02-18T07:16:45.956Z,1013.0
2018-02-18T07:17:47.346Z,1013.0
2018-02-18T07:18:48.728Z,1013.2
2018-02-18T07:19:50.113Z,1013.1
2018-02-18T07:20:51.505Z,1013.1
2018-02-18T07:21:52.893Z,1013.1
2018-02-18T07:22:54.299Z,1013.1
2018-02-18T07:23:55.662Z,1013.2
2018-02-18T07:24:57.072Z,1013.2
2018-02-18T07:25:58.460Z,1013.2
2018-02-18T07:26:59.844Z,1013.1
2018-02-18T07:28:01.228Z,1013.2
2018-02-18T07:29:02.617Z,1013.1
2018-02-18T07:30:04.001Z,1013.2
2018-02-18T07:31:05.388Z,1013.2
2018-02-18T07:32:06.777Z,1013.1
2018-02-18T07:33:08.159Z,1013.1
2018-02-18T07:34:09.546Z,1013.1
2018-02-18T07:35:10.926Z,1013.1
2018-02-18T07:36:12.310Z,1013.1
2018-02-18T07:37:13.699Z,1013.1
2018-02-18T07:38:15.088Z,1013.1
2018-02-18T07:39:16.485Z,1013.1
2018-02-18T07:40:17.872Z,1013.1
2018-02-18T07:41:19.260Z,1013.1
2018-02-18T07:42:20.644Z,1013.1
2018-02-18T07:43:22.039Z,1013.1
2018-02-18T07:44:23.426Z,1013.1
2018-02-18T07:45:24.816Z,1013.1
2018-02-18T07:46:26.200Z,1013.1
2018-02-18T07:47:27.593Z,1013.1
2018-02-18T07:48:28.979Z,1013.1
2018-02-18T07:49:30.369Z,1013.1
2018-02-18T07:50:31.757Z,1013.1
2018-02-18T07:51:33.142Z,1013.2
2018-02-18T07:52:34.528Z,1013.2
2018-02-18T07:53:35.917Z,1013.2
2018-02-18T07:54:37.313Z,1013.2
2018-02-18T07:55:38.693Z,1013.2
2018-02-18T07:56:40.083Z,1013.2
2018-02-18T07:57:41.478Z,1013.1
2018-02-18T07:58:42.863Z,1013.1
2018-02-18T07:59:44.251Z,1013.1
2018-02-18T08:00:45.700Z,1013.0
2018-02-18T08:01:47.040Z,1013.0
2018-02-18T08:02:48.453Z,1013.1
2018-02-18T08:03:49.842Z,1013.1
2018-02-18T08:04:51.227Z,1013.0
2018-02-18T08:05:52.616Z,1013.0
2018-02-18T08:06:54.532Z,1012.9
2018-02-18T08:07:55.921Z,1013.0
2018-02-18T08:08:57.323Z,1013.0
2018-02-18T08:09:58.724Z,1013.0
2018-02-18T08:11:00.110Z,1013.0
2018-02-18T08:12:01.499Z,1013.0
2018-02-18T08:13:02.885Z,1013.0
2018-02-18T08:14:04.273Z,1013.0
2018-02-18T08:15:05.661Z,1013.0
2018-02-18T08:16:07.084Z,1013.0
2018-02-18T08:17:08.467Z,1012.9
2018-02-18T08:18:09.851Z,1013.0
2018-02-18T08:19:11.239Z,1013.0
2018-02-18T08:20:12.627Z,1013.0
2018-02-18T08:21:14.018Z,1013.0
2018-02-18T08:22:15.399Z,1013.0
2018-02-18T08:23:16.798Z,1013.0
2018-02-18T08:24:18.185Z,1013.0
2018-02-18T08:25:19.965Z,1013.0
2018-02-18T08:26:21.351Z,1013.0
2018-02-18T08:27:22.737Z,1013.0
2018-02-18T08:28:24.122Z,1013.1
2018-02-18T08:29:25.510Z,1013.1
2018-02-18T08:30:26.913Z,1013.1
2018-02-18T08:31:28.296Z,1013.1
2018-02-18T08:32:29.682Z,1013.1
2018-02-18T08:33:31.067Z,1013.1
2018-02-18T08:34:32.456Z,1013.1
2018-02-18T08:35:33.844Z,1013.1
2018-02-18T08:36:35.243Z,1013.1
2018-02-18T08:37:36.640Z,1013.1
2018-02-18T08:38:38.060Z,1013.1
2018-02-18T08:39:39.745Z,1013.1
2018-02-18T08:40:41.133Z,1013.0
2018-02-18T08:41:42.524Z,1013.0
2018-02-18T08:42:43.912Z,1013.0
2018-02-18T08:43:45.302Z,1013.0
2018-02-18T08:44:46.713Z,1013.0
2018-02-18T08:45:48.099Z,1013.0
2018-02-18T08:46:49.489Z,1013.0
2018-02-18T08:47:50.883Z,1013.1
2018-02-18T08:48:52.337Z,1013.0
2018-02-18T08:49:53.733Z,1013.0
2018-02-18T08:50:55.120Z,1013.0
2018-02-18T08:51:56.521Z,1013.0
2018-02-18T08:52:57.910Z,1013.0
2018-02-18T08:53:59.663Z,1013.0
2018-02-18T08:55:01.047Z,1013.0
2018-02-18T08:56:02.442Z,1013.0
2018-02-18T08:57:03.832Z,1013.0
2018-02-18T08:58:05.219Z,1013.1
2018-02-18T08:59:06.611Z,1013.1
2018-02-18T09:00:07.999Z,1013.1
2018-02-18T09:01:09.388Z,1013.1
2018-02-18T09:02:10.774Z,1013.1
2018-02-18T09:03:12.217Z,1013.1
2018-02-18T09:04:13.554Z,1013.0
2018-02-18T09:05:14.953Z,1013.0
2018-02-18T09:06:16.342Z,1013.0
2018-02-18T09:07:17.729Z,1013.0
2018-02-18T09:08:19.122Z,1013.1
2018-02-18T09:09:20.508Z,1013.1
2018-02-18T09:10:21.940Z,1013.2
2018-02-18T09:11:23.335Z,1013.2
2018-02-18T09:12:24.765Z,1013.2
2018-02-18T09:13:26.157Z,1013.2
2018-02-18T09:14:27.545Z,1013.2
2018-02-18T09:15:28.964Z,1013.2
2018-02-18T09:16:30.336Z,1013.2
2018-02-18T09:17:31.729Z,1013.2
2018-02-18T09:18:33.121Z,1013.2
2018-02-18T09:19:34.510Z,1013.2
2018-02-18T09:20:35.903Z,1013.2
2018-02-18T09:21:37.315Z,1013.2
2018-02-18T09:22:38.721Z,1013.1
2018-02-18T09:23:40.093Z,1013.2
2018-02-18T09:24:41.503Z,1013.2
2018-02-18T09:25:42.886Z,1013.2
2018-02-18T09:26:44.279Z,1013.2
2018-02-18T09:27:45.699Z,1013.2
2018-02-18T09:28:47.144Z,1013.3
2018-02-18T09:29:48.585Z,1013.2
2018-02-18T09:30:49.975Z,1013.2
2018-02-18T09:31:51.365Z,1013.2
2018-02-18T09:32:52.753Z,1013.3
2018-02-18T09:33:54.141Z,1013.2
2018-02-18T09:34:55.533Z,1013.3
2018-02-18T09:35:57.011Z,1013.3
2018-02-18T09:36:58.515Z,1013.3
2018-02-18T09:37:59.901Z,1013.3
2018-02-18T09:39:01.296Z,1013.3
2018-02-18T09:40:02.743Z,1013.3
2018-02-18T09:41:04.134Z,1013.3
2018-02-18T09:42:05.528Z,1013.3
2018-02-18T09:43:06.953Z,1013.3
2018-02-18T09:44:08.354Z,1013.3
2018-02-18T09:45:09.792Z,1013.4
2018-02-18T09:46:11.185Z,1013.4
2018-02-18T09:47:12.578Z,1013.4
2018-02-18T09:48:14.290Z,1013.4
2018-02-18T09:49:15.685Z,1013.4
2018-02-18T09:50:17.095Z,1013.4
2018-02-18T09:51:18.484Z,1013.4
2018-02-18T09:52:19.873Z,1013.4
2018-02-18T09:53:21.264Z,1013.5
2018-02-18T09:54:22.655Z,1013.4
2018-02-18T09:55:24.050Z,1013.5
2018-02-18T09:56:25.443Z,1013.5
2018-02-18T09:57:26.904Z,1013.5
2018-02-18T09:58:28.248Z,1013.5
2018-02-18T09:59:29.640Z,1013.5
2018-02-18T10:00:31.030Z,1013.5
2018-02-18T10:01:32.477Z,1013.5
2018-02-18T10:02:33.868Z,1013.4
2018-02-18T10:03:35.266Z,1013.5
2018-02-18T10:04:36.667Z,1013.5
2018-02-18T10:05:38.057Z,1013.5
2018-02-18T10:06:39.454Z,1013.5
2018-02-18T10:07:40.852Z,1013.5
2018-02-18T10:08:42.274Z,1013.6
2018-02-18T10:09:43.668Z,1013.6
2018-02-18T10:10:45.073Z,1013.6
2018-02-18T10:11:46.472Z,1013.6
2018-02-18T10:12:47.878Z,1013.6
2018-02-18T10:13:49.261Z,1013.6
2018-02-18T10:14:50.658Z,1013.6
2018-02-18T10:15:52.085Z,1013.6
2018-02-18T10:16:53.482Z,1013.6
2018-02-18T10:17:54.884Z,1013.7
2018-02-18T10:18:56.280Z,1013.6
2018-02-18T10:19:57.735Z,1013.7
2018-02-18T10:20:59.086Z,1013.7
2018-02-18T10:22:00.485Z,1013.7
2018-02-18T10:23:01.986Z,1013.7
2018-02-18T10:24:03.442Z,1013.6
2018-02-18T10:25:04.845Z,1013.7
2018-02-18T10:26:06.252Z,1013.6
2018-02-18T10:27:07.646Z,1013.7
2018-02-18T10:28:09.055Z,1013.6
2018-02-18T10:29:10.457Z,1013.6
2018-02-18T10:30:11.873Z,1013.6
2018-02-18T10:31:13.282Z,1013.6
2018-02-18T10:32:14.693Z,1013.6
2018-02-18T10:33:16.095Z,1013.6
2018-02-18T10:34:17.498Z,1013.6
2018-02-18T10:35:18.901Z,1013.6
2018-02-18T10:36:20.304Z,1013.6
2018-02-18T10:37:22.017Z,1013.5
2018-02-18T10:38:23.511Z,1013.6
2018-02-18T10:39:24.918Z,1013.6
2018-02-18T10:40:26.320Z,1013.6
2018-02-18T10:41:27.722Z,1013.6
2018-02-18T10:42:29.131Z,1013.5
2018-02-18T10:43:30.533Z,1013.5
2018-02-18T10:44:31.967Z,1013.6
2018-02-18T10:45:33.378Z,1013.5
2018-02-18T10:46:34.782Z,1013.5
2018-02-18T10:47:36.183Z,1013.5
2018-02-18T10:48:37.601Z,1013.5
2018-02-18T10:49:38.997Z,1013.5
2018-02-18T10:50:40.405Z,1013.5
2018-02-18T10:51:42.100Z,1013.5
2018-02-18T10:52:43.568Z,1013.5
2018-02-18T10:53:44.976Z,1013.5
2018-02-18T10:54:46.381Z,1013.5
2018-02-18T10:55:47.788Z,1013.5
2018-02-18T10:56:49.192Z,1013.5
2018-02-18T10:57:50.597Z,1013.5
2018-02-18T10:58:52.008Z,1013.5
2018-02-18T10:59:53.442Z,1013.6
2018-02-18T11:00:54.826Z,1013.5
2018-02-18T11:01:56.233Z,1013.5
2018-02-18T11:02:57.636Z,1013.5
2018-02-18T11:03:59.044Z,1013.6
2018-02-18T11:05:00.455Z,1013.6
2018-02-18T11:06:02.036Z,1013.5
2018-02-18T11:07:03.450Z,1013.5
2018-02-18T11:08:04.900Z,1013.5
2018-02-18T11:09:06.508Z,1013.5
2018-02-18T11:10:07.910Z,1013.5
2018-02-18T11:11:09.319Z,1013.4
2018-02-18T11:12:10.744Z,1013.4
2018-02-18T11:13:12.160Z,1013.4
2018-02-18T11:14:13.595Z,1013.4
2018-02-18T11:15:15.101Z,1013.4
2018-02-18T11:16:16.545Z,1013.4
2018-02-18T11:17:17.953Z,1013.4
2018-02-18T11:18:19.376Z,1013.4
2018-02-18T11:19:20.806Z,1013.4
2018-02-18T11:20:22.255Z,1013.4
2018-02-18T11:21:23.743Z,1013.3
2018-02-18T11:22:25.158Z,1013.3
2018-02-18T11:23:26.615Z,1013.3
2018-02-18T11:24:28.018Z,1013.3
2018-02-18T11:25:29.428Z,1013.3
2018-02-18T11:26:30.832Z,1013.3
2018-02-18T11:27:32.253Z,1013.3
2018-02-18T11:28:33.789Z,1013.2
2018-02-18T11:29:35.194Z,1013.2
2018-02-18T11:30:36.817Z,1013.2
2018-02-18T11:31:38.219Z,1013.1
2018-02-18T11:32:39.629Z,1013.1
2018-02-18T11:33:41.042Z,1013.1
2018-02-18T11:34:42.448Z,1013.1
2018-02-18T11:35:43.858Z,1013.1
2018-02-18T11:36:45.258Z,1013.1
2018-02-18T11:37:46.675Z,1013.1
2018-02-18T11:38:48.087Z,1013.1
2018-02-18T11:39:49.493Z,1013.1
2018-02-18T11:40:50.960Z,1013.1
2018-02-18T11:41:52.676Z,1013.1
2018-02-18T11:42:54.050Z,1013.1
2018-02-18T11:43:55.455Z,1013.1
2018-02-18T11:44:56.869Z,1013.1
2018-02-18T11:45:58.275Z,1013.1
2018-02-18T11:46:59.675Z,1013.1
2018-02-18T11:48:01.084Z,1013.2
2018-02-18T11:49:02.491Z,1013.1
2018-02-18T11:50:03.898Z,1013.1
2018-02-18T11:51:05.301Z,1013.1
2018-02-18T11:52:06.710Z,1013.1
2018-02-18T11:53:08.183Z,1013.1
2018-02-18T11:54:09.614Z,1013.1
2018-02-18T11:55:11.035Z,1013.1
2018-02-18T11:56:12.432Z,1013.1
2018-02-18T11:57:13.854Z,1013.1
2018-02-18T11:58:15.255Z,1013.1
2018-02-18T11:59:16.689Z,1013.1
2018-02-18T12:00:18.090Z,1013.1
2018-02-18T12:01:19.488Z,1013.1
2018-02-18T12:02:20.903Z,1013.1
2018-02-18T12:03:22.357Z,1013.0
2018-02-18T12:04:23.851Z,1013.0
2018-02-18T12:05:25.341Z,1013.0
2018-02-18T12:06:26.875Z,1013.0
2018-02-18T12:07:28.280Z,1013.0
2018-02-18T12:08:29.767Z,1012.9
2018-02-18T12:09:31.177Z,1012.9
2018-02-18T12:10:32.565Z,1012.8
2018-02-18T12:11:33.963Z,1012.8
2018-02-18T12:12:35.371Z,1012.9
2018-02-18T12:13:36.900Z,1012.8
2018-02-18T12:14:38.306Z,1012.8
2018-02-18T12:15:39.708Z,1012.8
2018-02-18T12:16:41.109Z,1012.8
2018-02-18T12:17:42.507Z,1012.8
2018-02-18T12:18:43.907Z,1012.8
2018-02-18T12:19:45.308Z,1012.8
2018-02-18T12:20:46.731Z,1012.8
2018-02-18T12:21:48.130Z,1012.8
2018-02-18T12:22:49.546Z,1012.8
2018-02-18T12:23:50.942Z,1012.8
2018-02-18T12:24:52.357Z,1012.8
2018-02-18T12:25:53.762Z,1012.8
2018-02-18T12:26:55.166Z,1012.8
2018-02-18T12:27:56.574Z,1012.8
2018-02-18T12:28:57.971Z,1012.8
2018-02-18T12:29:59.369Z,1012.8
2018-02-18T12:31:00.767Z,1012.8
2018-02-18T12:32:02.167Z,1012.8
2018-02-18T12:33:03.570Z,1012.7
2018-02-18T12:34:04.969Z,1012.7
2018-02-18T12:35:06.370Z,1012.7
2018-02-18T12:36:07.767Z,1012.7
2018-02-18T12:37:09.166Z,1012.7
2018-02-18T12:38:10.567Z,1012.7
2018-02-18T12:39:12.035Z,1012.7
2018-02-18T12:40:13.511Z,1012.7
2018-02-18T12:41:14.912Z,1012.6
2018-02-18T12:42:16.314Z,1012.6
2018-02-18T12:43:17.729Z,1012.6
2018-02-18T12:44:19.127Z,1012.6
2018-02-18T12:45:20.526Z,1012.6
2018-02-18T12:46:21.940Z,1012.6